Terminal Aerodrome Forecast
Issued by NWS Mt. Holly, NJ

Home | Current Version | Previous Version | Text Only | Print | Product List | Glossary On
Versions: 1 2 3 4 5 6 7 8 9 10 11 12 13 14 15 16
000
FTUS41 KPHI 250559 AAA
TAFTTN
TAF AMD
KTTN 250559Z 2506/2606 07010KT P6SM OVC009
     FM251000 07012KT P6SM VCSH OVC004
     FM251500 07014KT 3SM -RA OVC008
     FM251900 07015G23KT 1SM +RA OVC010
     FM252200 07015KT 1SM RA OVC008
     FM260300 06012KT 3SM -RA OVC008
     FM260500 05011KT 1 1/2SM BR OVC008=

USA.gov is the U.S. government's official web portal to all federal, state and local government web resources and services.